Time;durP1;ratioP1;P1;durP2;ratioP2;P2;SDS_P1;SDS_P2;PMS_P1;PMS_P2;Temp;Humidity;BMP_temperature;BMP_pressure;BME280_temperature;BME280_humidity;BME280_pressure;Samples;Min_cycle;Max_cycle;Signal;HPM_P1;HPM_P2
2022/08/29 00:01:30;;;;;;;4.20;3.90;;;;;;;;;;5120926;28;20244;-62
2022/08/29 00:03:58;;;;;;;3.80;3.50;;;;;;;;;;5120672;28;20711;-63
2022/08/29 00:06:28;;;;;;;6.67;4.10;;;;;;;;;;5121115;28;20202;-63
2022/08/29 00:08:56;;;;;;;4.23;3.80;;;;;;;;;;5120864;28;20681;-63
2022/08/29 00:11:24;;;;;;;3.90;3.60;;;;;;;;;;5120621;28;20209;-63
2022/08/29 00:13:52;;;;;;;7.10;3.87;;;;;;;;;;5120699;28;20241;-62
2022/08/29 00:16:20;;;;;;;4.57;3.67;;;;;;;;;;5120531;28;20218;-63
2022/08/29 00:18:48;;;;;;;4.40;4.00;;;;;;;;;;5106807;28;20229;-63
2022/08/29 00:21:16;;;;;;;3.77;3.47;;;;;;;;;;5100481;28;20203;-63
2022/08/29 00:23:45;;;;;;;4.27;3.73;;;;;;;;;;5109161;28;20257;-63
2022/08/29 00:26:14;;;;;;;3.93;3.53;;;;;;;;;;5120848;28;20249;-63
2022/08/29 00:28:41;;;;;;;5.03;4.00;;;;;;;;;;5120383;27;20230;-63
2022/08/29 00:31:10;;;;;;;4.93;4.33;;;;;;;;;;5120773;28;20210;-62
2022/08/29 00:33:38;;;;;;;4.63;3.93;;;;;;;;;;5120051;27;20239;-62
2022/08/29 00:36:06;;;;;;;3.93;3.53;;;;;;;;;;5120279;28;20201;-63
2022/08/29 00:38:34;;;;;;;3.63;3.33;;;;;;;;;;5120428;28;20228;-63
2022/08/29 00:41:05;;;;;;;3.90;3.50;;;;;;;;;;5120462;28;20206;-63
2022/08/29 00:43:35;;;;;;;4.33;3.93;;;;;;;;;;5120322;28;20317;-63
2022/08/29 00:46:09;;;;;;;4.23;3.73;;;;;;;;;;5120394;28;20231;-63
2022/08/29 00:48:38;;;;;;;4.83;4.27;;;;;;;;;;5119789;28;20603;-63
2022/08/29 00:51:08;;;;;;;4.77;4.10;;;;;;;;;;5120334;28;20216;-63
2022/08/29 00:53:39;;;;;;;4.60;4.20;;;;;;;;;;5119784;28;20276;-62
2022/08/29 00:56:09;;;;;;;4.50;4.10;;;;;;;;;;5119909;28;20231;-63
2022/08/29 00:58:40;;;;;;;4.00;3.60;;;;;;;;;;5120140;28;20311;-63
2022/08/29 01:01:09;;;;;;;4.23;3.33;;;;;;;;;;5120100;28;20213;-63
2022/08/29 01:03:37;;;;;;;3.43;3.13;;;;;;;;;;5119496;28;20239;-62
2022/08/29 01:06:10;;;;;;;3.63;3.33;;;;;;;;;;5119728;28;20205;-63
2022/08/29 01:08:38;;;;;;;3.80;3.50;;;;;;;;;;5119735;28;20204;-63
2022/08/29 01:14:08;;;;;;;3.93;3.43;;;;;;;;;;5062199;28;20258;-63
2022/08/29 01:16:36;;;;;;;5.70;3.60;;;;;;;;;;5066590;28;20229;-63
2022/08/29 01:19:12;;;;;;;4.03;3.73;;;;;;;;;;5082826;28;20693;-62
2022/08/29 01:21:44;;;;;;;3.93;3.60;;;;;;;;;;5119479;28;20237;-63
2022/08/29 01:24:22;;;;;;;5.10;4.23;;;;;;;;;;5114742;28;20264;-62
2022/08/29 01:26:50;;;;;;;7.17;4.53;;;;;;;;;;5099116;28;20246;-63
2022/08/29 01:29:18;;;;;;;4.53;4.00;;;;;;;;;;5099127;28;20213;-63
2022/08/29 01:31:47;;;;;;;8.57;4.60;;;;;;;;;;5098857;28;20228;-62
2022/08/29 01:34:25;;;;;;;5.03;4.53;;;;;;;;;;5098970;28;20235;-62
2022/08/29 01:36:54;;;;;;;6.00;4.60;;;;;;;;;;5098968;28;20212;-63
2022/08/29 01:39:25;;;;;;;5.00;4.50;;;;;;;;;;5098958;28;20331;-62
2022/08/29 01:41:53;;;;;;;5.17;4.60;;;;;;;;;;5098736;28;20306;-63
2022/08/29 01:44:22;;;;;;;5.10;4.60;;;;;;;;;;5098568;28;20267;-63
2022/08/29 01:46:51;;;;;;;5.83;4.67;;;;;;;;;;5098444;28;20241;-63
2022/08/29 01:49:19;;;;;;;5.77;4.83;;;;;;;;;;5098290;28;20232;-62
2022/08/29 01:51:47;;;;;;;5.53;4.33;;;;;;;;;;5098488;28;20239;-63
2022/08/29 01:54:15;;;;;;;6.17;5.20;;;;;;;;;;5098374;28;20687;-63
2022/08/29 01:56:46;;;;;;;5.63;4.70;;;;;;;;;;5098217;28;20641;-63
2022/08/29 01:59:14;;;;;;;5.77;4.50;;;;;;;;;;5098271;28;20644;-62
2022/08/29 02:01:44;;;;;;;4.70;4.30;;;;;;;;;;5098176;28;20210;-63
2022/08/29 02:04:13;;;;;;;6.50;4.93;;;;;;;;;;5098176;28;20626;-62
2022/08/29 02:06:41;;;;;;;5.77;5.00;;;;;;;;;;5098186;28;20236;-62
2022/08/29 02:09:09;;;;;;;7.53;5.03;;;;;;;;;;5098083;28;20286;-63
2022/08/29 02:11:39;;;;;;;9.30;5.20;;;;;;;;;;5098325;28;20298;-63
2022/08/29 02:14:08;;;;;;;6.07;4.63;;;;;;;;;;5111235;28;20239;-63
2022/08/29 02:16:46;;;;;;;6.43;4.77;;;;;;;;;;5117003;28;20265;-62
2022/08/29 02:19:15;;;;;;;5.90;5.30;;;;;;;;;;5101401;28;20227;-62
2022/08/29 02:21:43;;;;;;;5.63;4.97;;;;;;;;;;5098187;28;20212;-62
2022/08/29 02:24:11;;;;;;;5.00;4.60;;;;;;;;;;5110936;28;20231;-63
2022/08/29 02:26:52;;;;;;;8.87;5.20;;;;;;;;;;5118154;28;20618;-63
2022/08/29 02:29:22;;;;;;;5.80;5.20;;;;;;;;;;5118222;28;20668;-62
2022/08/29 02:31:50;;;;;;;5.10;4.60;;;;;;;;;;5118005;28;20208;-62
2022/08/29 02:34:18;;;;;;;8.83;5.40;;;;;;;;;;5118320;28;20318;-62
2022/08/29 02:36:46;;;;;;;8.00;5.43;;;;;;;;;;5118250;28;20250;-62
2022/08/29 02:39:16;;;;;;;5.50;5.00;;;;;;;;;;5117895;28;20691;-62
2022/08/29 02:41:44;;;;;;;6.97;5.43;;;;;;;;;;5117711;28;20292;-62
2022/08/29 02:44:12;;;;;;;7.93;6.17;;;;;;;;;;5116433;28;20264;-62
2022/08/29 02:46:41;;;;;;;6.53;5.30;;;;;;;;;;5116150;28;20237;-62
2022/08/29 02:49:09;;;;;;;6.50;5.57;;;;;;;;;;5116206;28;20540;-62
2022/08/29 02:51:37;;;;;;;6.70;5.97;;;;;;;;;;5116168;28;20228;-62
2022/08/29 02:54:05;;;;;;;8.13;5.70;;;;;;;;;;5116354;28;20252;-62
2022/08/29 02:56:33;;;;;;;7.67;5.97;;;;;;;;;;5116455;28;20233;-62
2022/08/29 02:59:01;;;;;;;5.93;5.20;;;;;;;;;;5118068;28;20246;-62
2022/08/29 03:01:30;;;;;;;8.17;5.80;;;;;;;;;;5120953;28;20263;-62
2022/08/29 03:03:59;;;;;;;9.87;5.47;;;;;;;;;;5122204;28;20313;-62
2022/08/29 03:06:28;;;;;;;8.37;5.70;;;;;;;;;;5122032;28;20206;-62
2022/08/29 03:08:56;;;;;;;6.97;5.67;;;;;;;;;;5122369;28;20233;-62
2022/08/29 03:11:25;;;;;;;6.70;5.40;;;;;;;;;;5121791;28;20676;-62
2022/08/29 03:13:53;;;;;;;8.47;6.50;;;;;;;;;;5122117;28;20264;-62
2022/08/29 03:16:24;;;;;;;11.23;6.10;;;;;;;;;;5121876;28;20204;-62
2022/08/29 03:18:52;;;;;;;7.50;6.03;;;;;;;;;;5107812;28;20205;-62
2022/08/29 03:21:23;;;;;;;7.33;5.57;;;;;;;;;;5101334;28;20761;-62
2022/08/29 03:23:52;;;;;;;7.70;6.23;;;;;;;;;;5111872;28;20261;-62
2022/08/29 03:26:20;;;;;;;8.30;5.80;;;;;;;;;;5121879;28;20212;-62
2022/08/29 03:28:48;;;;;;;7.50;6.27;;;;;;;;;;5121594;28;20641;-62
2022/08/29 03:31:16;;;;;;;6.17;5.57;;;;;;;;;;5121663;28;20241;-62
2022/08/29 03:33:44;;;;;;;6.47;5.70;;;;;;;;;;5121148;28;20226;-62
2022/08/29 03:36:12;;;;;;;7.23;6.00;;;;;;;;;;5121811;28;20210;-62
2022/08/29 03:38:42;;;;;;;11.03;5.73;;;;;;;;;;5121700;28;20211;-62
2022/08/29 03:41:11;;;;;;;6.67;5.97;;;;;;;;;;5121272;28;20263;-62
2022/08/29 03:43:39;;;;;;;9.37;6.30;;;;;;;;;;5121270;28;20263;-62
2022/08/29 03:46:07;;;;;;;7.37;5.50;;;;;;;;;;5121626;28;20214;-62
2022/08/29 03:48:35;;;;;;;6.67;5.70;;;;;;;;;;5121220;28;20280;-62
2022/08/29 03:51:03;;;;;;;6.80;6.10;;;;;;;;;;5121274;28;20304;-62
2022/08/29 03:53:32;;;;;;;5.90;5.30;;;;;;;;;;5120968;28;20275;-62
2022/08/29 03:56:03;;;;;;;7.67;5.70;;;;;;;;;;5117441;27;20198;-62
2022/08/29 03:58:31;;;;;;;6.43;5.73;;;;;;;;;;5121011;28;20713;-62
2022/08/29 04:00:59;;;;;;;7.40;6.20;;;;;;;;;;5120692;28;20264;-62
2022/08/29 04:03:27;;;;;;;6.87;5.77;;;;;;;;;;5120585;28;20256;-62
2022/08/29 04:05:58;;;;;;;7.47;6.10;;;;;;;;;;5114676;28;20194;-62
2022/08/29 04:08:26;;;;;;;8.03;6.23;;;;;;;;;;5120718;27;20631;-62
2022/08/29 04:10:54;;;;;;;7.17;6.47;;;;;;;;;;5120245;28;20236;-62
2022/08/29 04:13:23;;;;;;;9.50;6.67;;;;;;;;;;5120527;28;20245;-62
2022/08/29 04:15:52;;;;;;;9.83;6.40;;;;;;;;;;5120076;28;20242;-62
2022/08/29 04:18:20;;;;;;;7.77;6.23;;;;;;;;;;5120368;28;20208;-62
2022/08/29 04:20:49;;;;;;;7.77;6.30;;;;;;;;;;5120552;28;20218;-62
2022/08/29 04:23:17;;;;;;;6.80;6.10;;;;;;;;;;5120400;27;20263;-62
2022/08/29 04:25:45;;;;;;;7.63;6.27;;;;;;;;;;5102806;28;20240;-62
2022/08/29 04:28:14;;;;;;;7.30;6.10;;;;;;;;;;5100298;28;20239;-63
2022/08/29 04:30:47;;;;;;;9.70;7.03;;;;;;;;;;5099879;28;20569;-62
2022/08/29 04:33:19;;;;;;;12.10;7.17;;;;;;;;;;5099851;28;20237;-62
2022/08/29 04:35:49;;;;;;;9.73;6.30;;;;;;;;;;5100139;28;20213;-62
2022/08/29 04:38:17;;;;;;;10.63;5.53;;;;;;;;;;5099959;28;20237;-62
2022/08/29 04:40:46;;;;;;;7.67;5.73;;;;;;;;;;5099605;28;20666;-62
2022/08/29 04:43:14;;;;;;;10.70;6.60;;;;;;;;;;5099831;28;20232;-62
2022/08/29 04:45:42;;;;;;;7.43;6.73;;;;;;;;;;5100145;28;20228;-62
2022/08/29 04:48:11;;;;;;;9.10;6.20;;;;;;;;;;5099711;28;20294;-63
2022/08/29 04:50:39;;;;;;;8.83;5.93;;;;;;;;;;5100281;28;20235;-62
2022/08/29 04:53:07;;;;;;;6.70;6.00;;;;;;;;;;5099322;28;20239;-63
2022/08/29 04:55:35;;;;;;;8.47;6.13;;;;;;;;;;5099512;28;20729;-63
2022/08/29 04:58:05;;;;;;;8.67;5.93;;;;;;;;;;5099505;28;20262;-62
2022/08/29 05:00:36;;;;;;;7.27;5.80;;;;;;;;;;5099456;28;20703;-63
2022/08/29 05:03:06;;;;;;;7.07;6.03;;;;;;;;;;5099233;28;20241;-63
2022/08/29 05:05:36;;;;;;;9.13;6.13;;;;;;;;;;5099639;28;20207;-63
2022/08/29 05:08:04;;;;;;;8.00;6.03;;;;;;;;;;5099554;28;20208;-63
2022/08/29 05:10:32;;;;;;;5.93;5.33;;;;;;;;;;5099194;28;20705;-62
2022/08/29 05:13:00;;;;;;;8.07;5.73;;;;;;;;;;5099264;28;20307;-62
2022/08/29 05:15:28;;;;;;;7.00;5.17;;;;;;;;;;5099335;28;20243;-62
2022/08/29 05:17:56;;;;;;;9.63;6.30;;;;;;;;;;5112444;28;20257;-63
2022/08/29 05:20:24;;;;;;;8.43;5.80;;;;;;;;;;5099139;28;20242;-62
2022/08/29 05:22:53;;;;;;;7.27;5.33;;;;;;;;;;5100359;28;20235;-62
2022/08/29 05:25:21;;;;;;;8.30;5.87;;;;;;;;;;5119015;28;20290;-62
2022/08/29 05:27:49;;;;;;;7.03;6.27;;;;;;;;;;5119498;27;20239;-63
2022/08/29 05:30:19;;;;;;;6.30;5.67;;;;;;;;;;5119380;28;20205;-62
2022/08/29 05:33:01;;;;;;;8.63;5.40;;;;;;;;;;5119054;28;20211;-62
2022/08/29 05:35:29;;;;;;;7.60;5.40;;;;;;;;;;5119332;28;20209;-62
2022/08/29 05:37:58;;;;;;;12.10;6.00;;;;;;;;;;5119442;28;20245;-62
2022/08/29 05:40:26;;;;;;;6.50;5.70;;;;;;;;;;5118868;28;20210;-62
2022/08/29 05:42:54;;;;;;;8.23;6.47;;;;;;;;;;5119051;28;20235;-63
2022/08/29 05:45:22;;;;;;;10.83;6.70;;;;;;;;;;5118913;28;20683;-62
2022/08/29 05:47:50;;;;;;;12.40;7.23;;;;;;;;;;5118580;28;20235;-63
2022/08/29 05:50:18;;;;;;;7.33;6.27;;;;;;;;;;5118771;28;20673;-63
2022/08/29 05:52:46;;;;;;;6.97;6.00;;;;;;;;;;5118824;28;20260;-62
2022/08/29 05:55:16;;;;;;;10.20;6.57;;;;;;;;;;5118624;28;20238;-62
2022/08/29 05:57:44;;;;;;;7.90;6.30;;;;;;;;;;5118652;28;20238;-62
2022/08/29 06:00:12;;;;;;;11.93;6.20;;;;;;;;;;5118996;28;20291;-62
2022/08/29 06:02:40;;;;;;;12.20;7.07;;;;;;;;;;5118488;28;20229;-62
2022/08/29 06:05:09;;;;;;;9.03;7.07;;;;;;;;;;5118524;28;20224;-62
2022/08/29 06:07:37;;;;;;;7.90;7.10;;;;;;;;;;5118422;28;20210;-62
2022/08/29 06:10:07;;;;;;;8.57;7.10;;;;;;;;;;5118547;28;20233;-62
2022/08/29 06:12:37;;;;;;;11.43;8.00;;;;;;;;;;5118652;28;20255;-62
2022/08/29 06:15:05;;;;;;;9.97;7.47;;;;;;;;;;5118783;28;20233;-62
2022/08/29 06:17:34;;;;;;;10.57;7.80;;;;;;;;;;5110903;28;20236;-62
2022/08/29 06:20:02;;;;;;;11.87;8.40;;;;;;;;;;5097365;28;20212;-62
2022/08/29 06:22:30;;;;;;;9.00;7.63;;;;;;;;;;5097888;28;20228;-62
2022/08/29 06:24:58;;;;;;;9.63;6.80;;;;;;;;;;5117125;28;20261;-62
2022/08/29 06:27:30;;;;;;;7.73;6.97;;;;;;;;;;5117978;28;20575;-62
2022/08/29 06:30:00;;;;;;;10.37;6.70;;;;;;;;;;5118068;28;20202;-62
2022/08/29 06:32:28;;;;;;;12.00;7.90;;;;;;;;;;5117891;28;20202;-62
2022/08/29 06:34:56;;;;;;;8.60;7.57;;;;;;;;;;5117971;28;20257;-62
2022/08/29 06:37:24;;;;;;;9.50;6.87;;;;;;;;;;5117864;28;20262;-62
2022/08/29 06:39:52;;;;;;;9.60;7.10;;;;;;;;;;5117074;28;20638;-62
2022/08/29 06:42:23;;;;;;;11.03;7.17;;;;;;;;;;5117584;28;20713;-62
2022/08/29 06:44:55;;;;;;;10.30;6.83;;;;;;;;;;5118174;28;20716;-62
2022/08/29 06:47:24;;;;;;;9.80;6.73;;;;;;;;;;5117793;28;20581;-62
2022/08/29 06:49:52;;;;;;;14.93;7.60;;;;;;;;;;5118247;28;20211;-62
2022/08/29 06:52:20;;;;;;;8.57;6.80;;;;;;;;;;5117970;28;20310;-62
2022/08/29 06:54:48;;;;;;;11.40;7.03;;;;;;;;;;5117944;28;20229;-62
2022/08/29 06:57:16;;;;;;;10.87;7.33;;;;;;;;;;5117771;28;20231;-62
2022/08/29 06:59:44;;;;;;;9.03;6.50;;;;;;;;;;5118109;28;20209;-62
2022/08/29 07:02:12;;;;;;;9.53;6.80;;;;;;;;;;5117647;28;20312;-63
2022/08/29 07:04:41;;;;;;;9.40;7.23;;;;;;;;;;5118031;28;20228;-62
2022/08/29 07:07:10;;;;;;;8.33;6.47;;;;;;;;;;5118094;28;20209;-63
2022/08/29 07:09:38;;;;;;;9.63;7.33;;;;;;;;;;5117893;28;20206;-62
2022/08/29 07:12:06;;;;;;;8.40;7.07;;;;;;;;;;5117661;28;20639;-62
2022/08/29 07:14:34;;;;;;;6.87;6.20;;;;;;;;;;5117829;28;20221;-63
2022/08/29 07:17:02;;;;;;;8.17;7.23;;;;;;;;;;5117517;28;20204;-62
2022/08/29 07:19:30;;;;;;;10.30;7.43;;;;;;;;;;5098044;28;20244;-62
2022/08/29 07:21:59;;;;;;;10.33;6.30;;;;;;;;;;5097185;28;20749;-62
2022/08/29 07:24:27;;;;;;;10.37;6.47;;;;;;;;;;5112482;28;20238;-62
2022/08/29 07:26:55;;;;;;;9.03;6.23;;;;;;;;;;5117771;28;20349;-62
2022/08/29 07:29:23;;;;;;;7.80;6.67;;;;;;;;;;5117904;28;20249;-62
2022/08/29 07:31:51;;;;;;;11.40;6.40;;;;;;;;;;5117556;28;20203;-62
2022/08/29 07:34:20;;;;;;;9.23;6.73;;;;;;;;;;5117768;28;20270;-62
2022/08/29 07:36:48;;;;;;;7.10;6.40;;;;;;;;;;5117746;28;20243;-62
2022/08/29 07:39:18;;;;;;;11.57;6.77;;;;;;;;;;5117586;28;20207;-62
2022/08/29 07:41:46;;;;;;;7.00;6.30;;;;;;;;;;5117599;28;20249;-62
2022/08/29 07:44:15;;;;;;;9.20;6.93;;;;;;;;;;5117691;28;20273;-62
2022/08/29 07:46:43;;;;;;;6.47;5.87;;;;;;;;;;5118892;28;20211;-62
2022/08/29 07:49:11;;;;;;;6.97;5.97;;;;;;;;;;5121243;28;20277;-62
2022/08/29 07:51:39;;;;;;;8.67;5.90;;;;;;;;;;5120991;28;20252;-62
2022/08/29 07:54:15;;;;;;;9.17;6.37;;;;;;;;;;5121023;28;20563;-62
2022/08/29 07:56:45;;;;;;;6.80;5.30;;;;;;;;;;5120975;28;20209;-62
2022/08/29 07:59:13;;;;;;;6.93;5.53;;;;;;;;;;5121313;28;20203;-62
2022/08/29 08:01:41;;;;;;;7.00;5.40;;;;;;;;;;5120609;28;20212;-62
2022/08/29 08:04:10;;;;;;;11.97;6.07;;;;;;;;;;5121042;28;20224;-62
2022/08/29 08:06:39;;;;;;;7.20;6.50;;;;;;;;;;5120797;28;20243;-62
2022/08/29 08:09:09;;;;;;;10.03;6.27;;;;;;;;;;5121004;27;20209;-62
2022/08/29 08:11:38;;;;;;;7.37;5.93;;;;;;;;;;5120919;28;20208;-62
2022/08/29 08:14:08;;;;;;;8.20;5.97;;;;;;;;;;5120854;27;20260;-62
2022/08/29 08:16:36;;;;;;;15.13;6.67;;;;;;;;;;5120536;28;20206;-62
2022/08/29 08:19:10;;;;;;;7.28;6.43;;;;;;;;;;5104200;28;20292;-62
2022/08/29 08:21:39;;;;;;;9.30;6.50;;;;;;;;;;5100094;28;20274;-62
2022/08/29 08:24:16;;;;;;;8.37;5.80;;;;;;;;;;5113863;28;20234;-62
2022/08/29 08:26:46;;;;;;;6.53;5.83;;;;;;;;;;5120554;28;20294;-62
2022/08/29 08:29:16;;;;;;;7.67;5.97;;;;;;;;;;5120631;28;20241;-62
2022/08/29 08:31:44;;;;;;;10.27;6.63;;;;;;;;;;5120067;28;20639;-62
2022/08/29 08:34:14;;;;;;;6.43;5.82;;;;;;;;;;5120417;28;20286;-62
2022/08/29 08:36:43;;;;;;;7.68;6.50;;;;;;;;;;5120245;28;20206;-62
2022/08/29 08:39:11;;;;;;;7.28;5.88;;;;;;;;;;5120205;28;20691;-62
2022/08/29 08:41:45;;;;;;;5.80;5.20;;;;;;;;;;5119978;28;20548;-62
2022/08/29 08:44:15;;;;;;;7.55;5.30;;;;;;;;;;5120375;28;20233;-62
2022/08/29 08:46:48;;;;;;;7.43;5.83;;;;;;;;;;5120128;28;20201;-62
2022/08/29 08:49:18;;;;;;;7.88;5.85;;;;;;;;;;5120382;28;20236;-62
2022/08/29 08:51:57;;;;;;;6.65;5.75;;;;;;;;;;5120045;28;20321;-62
2022/08/29 08:54:27;;;;;;;6.25;5.32;;;;;;;;;;5119917;28;20273;-62
2022/08/29 08:56:57;;;;;;;13.40;6.45;;;;;;;;;;5119973;28;20208;-62
2022/08/29 08:59:31;;;;;;;6.38;5.28;;;;;;;;;;5119111;28;20205;-62
2022/08/29 09:02:02;;;;;;;6.00;5.40;;;;;;;;;;5119601;28;20228;-62
2022/08/29 09:04:48;;;;;;;8.80;5.43;;;;;;;;;;5119888;28;20289;-62
2022/08/29 09:07:21;;;;;;;6.53;5.50;;;;;;;;;;5119723;28;20212;-62
2022/08/29 09:10:00;;;;;;;5.90;5.30;;;;;;;;;;5119918;28;20238;-62
2022/08/29 09:12:37;;;;;;;10.13;5.00;;;;;;;;;;5119425;28;20245;-62
2022/08/29 09:15:07;;;;;;;8.33;5.20;;;;;;;;;;5119616;28;20282;-62
2022/08/29 09:17:44;;;;;;;6.47;5.33;;;;;;;;;;5115358;28;20209;-62
2022/08/29 09:20:14;;;;;;;7.73;4.67;;;;;;;;;;5099121;28;20261;-62
2022/08/29 09:22:43;;;;;;;6.63;4.63;;;;;;;;;;5099252;28;20264;-62
2022/08/29 09:25:12;;;;;;;6.87;5.40;;;;;;;;;;5119635;28;20225;-62
2022/08/29 09:27:40;;;;;;;5.63;5.03;;;;;;;;;;5119305;28;20250;-62
2022/08/29 09:30:11;;;;;;;7.33;4.83;;;;;;;;;;5119608;28;20235;-62
2022/08/29 09:32:53;;;;;;;7.77;4.90;;;;;;;;;;5119290;28;20204;-62
2022/08/29 09:35:24;;;;;;;6.53;4.73;;;;;;;;;;5119367;28;20260;-62
2022/08/29 09:37:56;;;;;;;4.97;4.47;;;;;;;;;;5119413;28;20213;-62
2022/08/29 09:40:26;;;;;;;6.10;4.93;;;;;;;;;;5118881;28;20739;-62
2022/08/29 09:43:01;;;;;;;5.57;5.03;;;;;;;;;;5119138;28;20212;-62
2022/08/29 09:45:29;;;;;;;9.25;5.22;;;;;;;;;;5119181;28;20238;-62
2022/08/29 09:48:09;;;;;;;8.83;4.63;;;;;;;;;;5118629;28;20728;-62
2022/08/29 09:50:38;;;;;;;5.50;4.43;;;;;;;;;;5118960;28;20202;-62
2022/08/29 09:53:06;;;;;;;10.73;4.83;;;;;;;;;;5118719;28;20269;-62
2022/08/29 09:55:51;;;;;;;8.97;4.50;;;;;;;;;;5118930;28;20210;-62
2022/08/29 09:58:27;;;;;;;6.50;5.10;;;;;;;;;;5118681;27;20206;-62
2022/08/29 10:00:59;;;;;;;9.77;4.67;;;;;;;;;;5118952;28;20214;-63
2022/08/29 10:03:32;;;;;;;8.13;5.50;;;;;;;;;;5118598;28;20285;-63
2022/08/29 10:06:07;;;;;;;6.23;5.00;;;;;;;;;;5118783;28;20207;-63
2022/08/29 10:08:35;;;;;;;8.63;5.07;;;;;;;;;;5118610;28;20206;-63
2022/08/29 10:11:04;;;;;;;8.53;5.00;;;;;;;;;;5118280;28;20730;-63
2022/08/29 10:13:40;;;;;;;10.23;5.47;;;;;;;;;;5118542;28;20629;-63
2022/08/29 10:16:13;;;;;;;9.47;5.27;;;;;;;;;;5118446;28;20200;-63
2022/08/29 10:18:46;;;;;;;10.97;4.97;;;;;;;;;;5104795;28;20632;-63
2022/08/29 10:21:29;;;;;;;13.33;5.60;;;;;;;;;;5108346;28;20236;-63
2022/08/29 10:24:04;;;;;;;6.40;5.68;;;;;;;;;;5107386;28;20758;-63
2022/08/29 10:26:36;;;;;;;9.43;5.15;;;;;;;;;;5097709;28;20253;-63
2022/08/29 10:29:08;;;;;;;8.23;5.10;;;;;;;;;;5097579;28;20643;-63
2022/08/29 10:31:40;;;;;;;6.93;5.07;;;;;;;;;;5097841;28;20319;-63
2022/08/29 10:34:21;;;;;;;8.95;5.22;;;;;;;;;;5097622;28;20302;-63
2022/08/29 10:36:52;;;;;;;6.88;4.53;;;;;;;;;;5097899;28;20247;-62
2022/08/29 10:39:40;;;;;;;7.90;5.13;;;;;;;;;;5097686;28;20236;-63
2022/08/29 10:42:09;;;;;;;5.65;5.10;;;;;;;;;;5097235;28;20663;-63
2022/08/29 10:44:44;;;;;;;6.50;5.20;;;;;;;;;;5097539;28;20350;-63
2022/08/29 10:47:21;;;;;;;9.80;5.05;;;;;;;;;;5097616;28;20250;-63
2022/08/29 10:49:58;;;;;;;5.55;4.85;;;;;;;;;;5096860;28;20208;-63
2022/08/29 10:52:28;;;;;;;6.45;4.35;;;;;;;;;;5095601;28;20656;-63
2022/08/29 10:55:00;;;;;;;9.48;5.35;;;;;;;;;;5095597;28;20221;-63
2022/08/29 10:57:37;;;;;;;6.38;5.18;;;;;;;;;;5095758;28;20259;-63
2022/08/29 11:00:07;;;;;;;5.43;4.80;;;;;;;;;;5095655;28;20247;-63
2022/08/29 11:02:38;;;;;;;5.30;4.80;;;;;;;;;;5095704;28;20216;-63
2022/08/29 11:05:11;;;;;;;6.22;4.72;;;;;;;;;;5096958;28;20233;-63
2022/08/29 11:07:41;;;;;;;6.60;4.35;;;;;;;;;;5097718;28;20208;-63
2022/08/29 11:10:12;;;;;;;5.28;4.53;;;;;;;;;;5097629;28;20243;-63
2022/08/29 11:12:45;;;;;;;5.53;5.00;;;;;;;;;;5097533;28;20209;-62
2022/08/29 11:15:17;;;;;;;6.03;5.53;;;;;;;;;;5097207;28;20724;-62
2022/08/29 11:17:48;;;;;;;5.30;4.82;;;;;;;;;;5108774;28;20228;-62
2022/08/29 11:20:20;;;;;;;6.53;5.28;;;;;;;;;;5097229;28;20236;-62
2022/08/29 11:22:50;;;;;;;5.55;4.95;;;;;;;;;;5102117;28;20283;-62
2022/08/29 11:25:19;;;;;;;8.40;4.40;;;;;;;;;;5121500;28;20256;-62
2022/08/29 11:27:52;;;;;;;9.13;5.10;;;;;;;;;;5108443;28;20243;-62
2022/08/29 11:30:22;;;;;;;5.93;4.63;;;;;;;;;;5121515;28;20204;-62
2022/08/29 11:32:56;;;;;;;6.97;4.80;;;;;;;;;;5121435;28;20212;-62
2022/08/29 11:35:27;;;;;;;5.05;4.55;;;;;;;;;;5121688;28;20204;-62
2022/08/29 11:38:14;;;;;;;4.85;4.25;;;;;;;;;;5121408;28;20205;-62
2022/08/29 11:40:46;;;;;;;5.72;4.88;;;;;;;;;;5121196;28;20678;-62
2022/08/29 11:43:36;;;;;;;5.75;4.57;;;;;;;;;;5121486;28;20315;-62
2022/08/29 11:46:06;;;;;;;4.80;4.30;;;;;;;;;;5121502;28;20235;-63
2022/08/29 11:48:36;;;;;;;6.70;4.20;;;;;;;;;;5121471;28;20209;-62
2022/08/29 11:51:20;;;;;;;5.47;4.30;;;;;;;;;;5121250;28;20200;-62
2022/08/29 11:53:49;;;;;;;5.07;4.30;;;;;;;;;;5121093;28;20259;-62
2022/08/29 11:56:23;;;;;;;5.20;4.22;;;;;;;;;;5120978;28;20200;-63
2022/08/29 11:58:55;;;;;;;6.22;4.05;;;;;;;;;;5121151;28;20291;-63
2022/08/29 12:01:44;;;;;;;7.00;4.25;;;;;;;;;;5120963;28;20213;-63
2022/08/29 12:04:32;;;;;;;4.35;3.95;;;;;;;;;;5116976;28;20250;-62
2022/08/29 12:07:03;;;;;;;8.02;4.15;;;;;;;;;;5120988;28;20580;-63
2022/08/29 12:09:39;;;;;;;5.43;4.13;;;;;;;;;;5121215;28;20239;-63
2022/08/29 12:12:12;;;;;;;6.93;4.20;;;;;;;;;;5120854;28;20633;-63
2022/08/29 12:14:41;;;;;;;5.07;3.72;;;;;;;;;;5121057;27;20281;-63
2022/08/29 12:17:11;;;;;;;6.13;4.00;;;;;;;;;;5120672;28;20201;-62
2022/08/29 12:19:47;;;;;;;4.38;3.97;;;;;;;;;;5107617;28;20240;-63
2022/08/29 12:22:33;;;;;;;6.57;3.80;;;;;;;;;;5120962;28;20236;-63
2022/08/29 12:25:22;;;;;;;9.25;8.15;;;;;;;;;;5109244;28;20235;-62
2022/08/29 12:28:05;;;;;;;37.22;22.55;;;;;;;;;;5100232;28;20231;-63
2022/08/29 12:30:37;;;;;;;5.75;4.68;;;;;;;;;;5100307;28;20240;-63
2022/08/29 12:33:13;;;;;;;4.47;4.07;;;;;;;;;;5099318;28;20212;-63
2022/08/29 12:35:59;;;;;;;4.43;3.55;;;;;;;;;;5099938;28;20565;-63
2022/08/29 12:38:31;;;;;;;4.57;3.55;;;;;;;;;;5100217;28;20236;-63
2022/08/29 12:41:11;;;;;;;4.00;3.67;;;;;;;;;;5100133;28;20237;-63
2022/08/29 12:43:41;;;;;;;3.72;3.45;;;;;;;;;;5099783;28;20229;-63
2022/08/29 12:46:12;;;;;;;2.90;2.70;;;;;;;;;;5099725;28;20312;-63
2022/08/29 12:48:42;;;;;;;3.78;3.47;;;;;;;;;;5099694;28;20209;-63
2022/08/29 12:51:36;;;;;;;3.83;3.40;;;;;;;;;;5099759;28;20223;-63
2022/08/29 12:54:05;;;;;;;4.70;3.33;;;;;;;;;;5099591;28;20225;-63
2022/08/29 12:56:34;;;;;;;3.33;3.03;;;;;;;;;;5099450;28;20571;-62
2022/08/29 12:59:04;;;;;;;4.53;3.00;;;;;;;;;;5099505;28;20201;-63
2022/08/29 13:01:36;;;;;;;4.03;2.88;;;;;;;;;;5099482;28;20205;-62
2022/08/29 13:04:06;;;;;;;4.10;2.80;;;;;;;;;;5099596;28;20236;-62
2022/08/29 13:06:34;;;;;;;4.50;4.10;;;;;;;;;;5099602;28;20229;-62
2022/08/29 13:09:03;;;;;;;2.80;2.55;;;;;;;;;;5099691;28;20233;-63
2022/08/29 13:11:32;;;;;;;5.88;3.10;;;;;;;;;;5099507;28;20236;-63
2022/08/29 13:14:06;;;;;;;4.53;3.35;;;;;;;;;;5099258;28;20256;-63
2022/08/29 13:16:34;;;;;;;3.40;3.08;;;;;;;;;;5105085;28;20200;-62
2022/08/29 13:19:02;;;;;;;3.95;3.15;;;;;;;;;;5104167;28;20236;-63
2022/08/29 13:21:38;;;;;;;3.67;3.38;;;;;;;;;;5099216;28;20201;-63
2022/08/29 13:24:10;;;;;;;3.70;3.22;;;;;;;;;;5111607;28;20271;-62
2022/08/29 13:26:41;;;;;;;4.35;3.38;;;;;;;;;;5119598;28;20266;-63
2022/08/29 13:29:24;;;;;;;3.17;2.78;;;;;;;;;;5119415;28;20230;-63
2022/08/29 13:32:07;;;;;;;6.65;2.97;;;;;;;;;;5119322;28;20230;-62
2022/08/29 13:34:35;;;;;;;4.43;2.80;;;;;;;;;;5119293;28;20225;-62
2022/08/29 13:37:06;;;;;;;3.03;2.83;;;;;;;;;;5119451;28;20227;-62
2022/08/29 13:39:43;;;;;;;2.67;2.47;;;;;;;;;;5119514;28;20212;-62
2022/08/29 13:42:22;;;;;;;2.90;2.70;;;;;;;;;;5119046;28;20323;-62
2022/08/29 13:44:58;;;;;;;2.72;2.25;;;;;;;;;;5118205;28;20270;-61
2022/08/29 13:47:29;;;;;;;3.00;2.70;;;;;;;;;;5118804;28;20207;-62
2022/08/29 13:49:57;;;;;;;2.83;2.45;;;;;;;;;;5119258;28;20235;-62
2022/08/29 13:52:25;;;;;;;3.38;2.60;;;;;;;;;;5118732;28;20275;-62
2022/08/29 13:54:58;;;;;;;6.50;3.00;;;;;;;;;;5118783;28;20224;-62
2022/08/29 13:57:28;;;;;;;2.50;2.30;;;;;;;;;;5119067;28;20205;-62
2022/08/29 13:59:57;;;;;;;2.58;2.38;;;;;;;;;;5118992;28;20200;-62
2022/08/29 14:02:26;;;;;;;3.03;2.63;;;;;;;;;;5118807;28;20200;-62
2022/08/29 14:04:55;;;;;;;2.58;2.17;;;;;;;;;;5118597;28;20726;-62
2022/08/29 14:07:25;;;;;;;2.10;2.00;;;;;;;;;;5118899;28;20266;-62
2022/08/29 14:09:53;;;;;;;5.07;2.22;;;;;;;;;;5118965;28;20208;-61
2022/08/29 14:12:22;;;;;;;2.42;2.22;;;;;;;;;;5118691;28;20236;-62
2022/08/29 14:15:02;;;;;;;7.43;2.60;;;;;;;;;;5118717;28;20221;-62
2022/08/29 14:17:36;;;;;;;3.13;2.40;;;;;;;;;;5114489;28;20201;-61
2022/08/29 14:20:06;;;;;;;2.67;2.15;;;;;;;;;;5098055;28;20682;-62
2022/08/29 14:22:34;;;;;;;3.25;2.05;;;;;;;;;;5097985;28;20291;-62
2022/08/29 14:25:02;;;;;;;2.30;2.10;;;;;;;;;;5108926;28;20711;-62
2022/08/29 14:27:30;;;;;;;4.10;2.28;;;;;;;;;;5111787;28;20649;-62
2022/08/29 14:29:58;;;;;;;2.47;1.95;;;;;;;;;;5117983;28;20208;-62
2022/08/29 14:32:27;;;;;;;2.95;2.38;;;;;;;;;;5118169;28;20230;-61
2022/08/29 14:34:55;;;;;;;3.13;2.20;;;;;;;;;;5117051;28;20259;-62
2022/08/29 14:37:23;;;;;;;2.40;2.20;;;;;;;;;;5117521;28;20724;-62
2022/08/29 14:39:52;;;;;;;4.70;2.25;;;;;;;;;;5118410;28;20236;-62
2022/08/29 14:42:20;;;;;;;5.28;2.17;;;;;;;;;;5118144;28;20261;-62
2022/08/29 14:44:48;;;;;;;3.50;2.20;;;;;;;;;;5116042;28;20228;-62
2022/08/29 14:47:16;;;;;;;6.90;2.70;;;;;;;;;;5116126;28;20220;-62
2022/08/29 14:49:45;;;;;;;8.27;3.30;;;;;;;;;;5116218;28;20767;-62
2022/08/29 14:52:13;;;;;;;5.72;2.65;;;;;;;;;;5116117;28;20236;-62
2022/08/29 14:54:42;;;;;;;3.80;2.50;;;;;;;;;;5116049;28;20765;-62
2022/08/29 14:57:10;;;;;;;3.78;2.55;;;;;;;;;;5120554;28;20232;-62
2022/08/29 14:59:39;;;;;;;2.35;2.20;;;;;;;;;;5120512;28;20246;-62
2022/08/29 15:02:08;;;;;;;3.47;3.17;;;;;;;;;;5120599;28;20292;-63
2022/08/29 15:04:36;;;;;;;3.03;2.80;;;;;;;;;;5120620;28;20247;-62